Time;durP1;ratioP1;P1;durP2;ratioP2;P2;SDS_P1;SDS_P2;PMS_P1;PMS_P2;Temp;Humidity;BMP_temperature;BMP_pressure;BME280_temperature;BME280_humidity;BME280_pressure;Samples;Min_cycle;Max_cycle;Signal;HPM_P1;HPM_P2
2021/07/16 00:01:02;;;;;;;7.40;6.45;;;21.40;93.30;;;;;;5051245;28;20060;-61
2021/07/16 00:03:28;;;;;;;6.97;6.38;;;21.40;93.50;;;;;;5051386;28;20040;-62
2021/07/16 00:05:53;;;;;;;10.25;6.60;;;21.40;93.60;;;;;;5049888;28;20048;-62
2021/07/16 00:08:19;;;;;;;6.60;5.80;;;21.50;93.60;;;;;;5050435;28;20508;-61
2021/07/16 00:10:44;;;;;;;8.40;6.47;;;21.40;93.40;;;;;;5051154;28;20036;-63
2021/07/16 00:13:10;;;;;;;7.53;5.47;;;21.40;93.50;;;;;;5051195;28;20052;-61
2021/07/16 00:15:36;;;;;;;7.85;6.43;;;21.30;93.50;;;;;;5051125;28;20037;-61
2021/07/16 00:18:01;;;;;;;8.43;5.93;;;21.30;93.70;;;;;;5050397;28;20110;-59
2021/07/16 00:20:27;;;;;;;9.18;6.38;;;21.20;93.70;;;;;;5051420;28;20033;-60
2021/07/16 00:22:52;;;;;;;8.18;6.10;;;21.10;93.80;;;;;;5051279;28;20098;-61
2021/07/16 00:25:18;;;;;;;8.32;6.10;;;21.00;94.00;;;;;;5050946;28;20044;-61
2021/07/16 00:27:44;;;;;;;7.70;6.20;;;21.00;94.10;;;;;;5053027;28;20048;-61
2021/07/16 00:30:10;;;;;;;7.78;6.80;;;21.00;94.40;;;;;;5056482;28;20056;-61
2021/07/16 00:32:36;;;;;;;8.60;6.50;;;21.00;94.40;;;;;;5033630;28;20507;-61
2021/07/16 00:35:03;;;;;;;6.80;5.90;;;20.90;94.50;;;;;;5050558;28;20160;-59
2021/07/16 00:37:28;;;;;;;9.07;6.78;;;20.90;94.50;;;;;;5037677;28;20117;-60
2021/07/16 00:39:54;;;;;;;8.32;6.18;;;20.90;94.50;;;;;;5050961;28;20140;-60
2021/07/16 00:42:19;;;;;;;8.80;6.20;;;20.80;94.60;;;;;;5045204;28;20040;-60
2021/07/16 00:44:45;;;;;;;9.15;6.70;;;20.80;94.60;;;;;;5062515;28;20033;-61
2021/07/16 00:47:11;;;;;;;7.57;6.10;;;20.80;94.70;;;;;;5050821;28;20620;-61
2021/07/16 00:49:36;;;;;;;10.50;6.28;;;20.70;94.80;;;;;;5050819;28;20037;-62
2021/07/16 00:52:03;;;;;;;9.75;6.10;;;20.70;94.80;;;;;;5051039;28;20033;-62
2021/07/16 00:54:29;;;;;;;9.80;6.13;;;20.70;94.90;;;;;;5050166;28;20025;-61
2021/07/16 00:56:55;;;;;;;9.75;6.57;;;20.70;94.90;;;;;;5050111;28;20370;-60
2021/07/16 00:59:23;;;;;;;9.20;6.13;;;20.70;94.80;;;;;;5050763;28;20504;-61
2021/07/16 01:01:49;;;;;;;7.10;6.15;;;20.70;94.80;;;;;;5050800;28;20115;-60
2021/07/16 01:04:15;;;;;;;6.75;6.05;;;20.80;94.90;;;;;;5050322;28;20116;-61
2021/07/16 01:06:40;;;;;;;7.45;5.82;;;20.80;94.80;;;;;;5050121;28;20507;-58
2021/07/16 01:09:06;;;;;;;8.63;6.20;;;20.70;94.80;;;;;;5050643;28;20190;-59
2021/07/16 01:11:33;;;;;;;12.70;5.85;;;20.70;94.80;;;;;;5050152;28;20029;-58
2021/07/16 01:13:59;;;;;;;7.90;5.88;;;20.60;95.00;;;;;;5050128;28;20029;-59
2021/07/16 01:16:25;;;;;;;7.15;5.45;;;20.50;95.40;;;;;;5050164;28;20381;-59
2021/07/16 01:18:51;;;;;;;7.47;5.30;;;20.40;95.40;;;;;;5051609;28;20025;-58
2021/07/16 01:21:17;;;;;;;5.80;5.22;;;20.40;95.60;;;;;;5054108;28;20111;-60
2021/07/16 01:23:43;;;;;;;6.40;5.80;;;20.50;95.60;;;;;;5054397;28;20060;-55
2021/07/16 01:26:09;;;;;;;8.02;5.97;;;20.60;95.50;;;;;;5052137;28;20053;-59
2021/07/16 01:28:39;;;;;;;9.20;5.50;;;20.60;95.50;;;;;;5053978;28;20506;-54
2021/07/16 01:31:09;;;;;;;6.13;5.20;;;20.60;95.30;;;;;;5054403;28;20623;-55
2021/07/16 01:33:34;;;;;;;9.10;5.82;;;20.50;95.20;;;;;;5053564;28;20029;-58
2021/07/16 01:36:00;;;;;;;7.20;5.50;;;20.50;95.30;;;;;;5053702;28;20033;-56
2021/07/16 01:38:27;;;;;;;9.13;6.25;;;20.50;95.40;;;;;;5053605;28;20056;-56
2021/07/16 01:40:54;;;;;;;8.40;6.00;;;20.40;95.40;;;;;;5060109;28;20071;-55
2021/07/16 01:43:19;;;;;;;7.80;6.22;;;20.40;95.40;;;;;;5068794;28;20052;-55
2021/07/16 01:45:45;;;;;;;10.98;6.32;;;20.30;95.50;;;;;;5058426;28;20079;-58
2021/07/16 01:48:14;;;;;;;8.00;6.20;;;20.30;95.60;;;;;;5057718;28;20052;-56
2021/07/16 01:50:50;;;;;;;7.47;6.50;;;20.30;95.70;;;;;;5054308;28;20037;-53
2021/07/16 01:53:18;;;;;;;9.25;6.53;;;20.30;95.80;;;;;;5052599;28;20051;-56
2021/07/16 01:55:44;;;;;;;8.50;5.93;;;20.30;95.80;;;;;;5052381;28;20032;-57
2021/07/16 01:58:11;;;;;;;8.25;6.32;;;20.30;95.60;;;;;;5053320;28;20028;-57
2021/07/16 02:00:40;;;;;;;7.90;6.28;;;20.20;95.80;;;;;;5053960;28;20033;-58
2021/07/16 02:03:09;;;;;;;8.75;6.90;;;20.20;95.80;;;;;;5053179;28;20049;-57
2021/07/16 02:05:37;;;;;;;7.07;6.38;;;20.10;96.00;;;;;;5053762;28;20480;-53
2021/07/16 02:08:06;;;;;;;12.68;7.05;;;20.10;96.20;;;;;;5053023;28;20076;-54
2021/07/16 02:10:33;;;;;;;12.25;7.85;;;20.10;96.20;;;;;;5052905;28;20029;-55
2021/07/16 02:12:59;;;;;;;9.07;7.70;;;20.00;96.40;;;;;;5053266;28;20040;-56
2021/07/16 02:15:30;;;;;;;9.20;7.35;;;19.90;96.50;;;;;;5052798;28;20143;-55
2021/07/16 02:17:56;;;;;;;8.07;7.00;;;19.90;96.60;;;;;;5052644;28;20077;-53
2021/07/16 02:20:28;;;;;;;8.30;6.70;;;19.90;96.50;;;;;;5052887;28;20104;-55
2021/07/16 02:22:57;;;;;;;11.18;7.40;;;20.00;96.50;;;;;;5055526;28;20029;-57
2021/07/16 02:25:23;;;;;;;9.23;6.90;;;20.00;96.40;;;;;;5054439;28;20116;-59
2021/07/16 02:27:57;;;;;;;8.20;6.88;;;20.00;96.50;;;;;;5050144;28;20144;-55
2021/07/16 02:30:26;;;;;;;31.60;20.27;;;20.00;96.40;;;;;;5052331;28;20120;-54
2021/07/16 02:32:52;;;;;;;14.88;9.10;;;20.10;96.50;;;;;;5051667;28;20051;-54
2021/07/16 02:35:18;;;;;;;12.93;8.05;;;20.00;96.40;;;;;;5052421;28;20036;-55
2021/07/16 02:37:44;;;;;;;12.13;6.63;;;20.10;96.30;;;;;;5052967;28;20113;-55
2021/07/16 02:40:11;;;;;;;13.10;6.80;;;20.00;96.40;;;;;;5052690;28;20468;-54
2021/07/16 02:42:37;;;;;;;9.00;6.95;;;20.00;96.60;;;;;;5067446;28;20032;-57
2021/07/16 02:45:08;;;;;;;9.07;7.50;;;20.00;96.60;;;;;;5061910;28;20110;-56
2021/07/16 02:47:38;;;;;;;11.00;7.45;;;19.90;96.60;;;;;;5050920;28;20033;-54
2021/07/16 02:50:12;;;;;;;12.20;6.88;;;19.70;96.80;;;;;;5052639;28;20606;-54
2021/07/16 02:52:39;;;;;;;11.43;6.90;;;19.90;96.70;;;;;;5052227;28;20025;-53
2021/07/16 02:55:06;;;;;;;10.52;6.82;;;19.70;96.90;;;;;;5052319;28;20052;-57
2021/07/16 02:57:33;;;;;;;8.85;7.18;;;19.70;97.10;;;;;;5051650;28;20038;-58
2021/07/16 02:59:59;;;;;;;7.22;6.38;;;19.70;97.20;;;;;;5051582;28;20047;-60
2021/07/16 03:02:28;;;;;;;9.95;6.75;;;19.80;97.20;;;;;;5052558;28;20492;-57
2021/07/16 03:04:55;;;;;;;14.93;6.95;;;19.70;97.00;;;;;;5052514;28;20040;-55
2021/07/16 03:07:21;;;;;;;11.70;6.90;;;19.80;96.80;;;;;;5052135;28;20044;-56
2021/07/16 03:09:46;;;;;;;9.60;6.47;;;19.80;96.40;;;;;;5052284;28;20036;-56
2021/07/16 03:12:12;;;;;;;10.77;7.63;;;19.80;96.60;;;;;;5052274;28;20048;-54
2021/07/16 03:14:38;;;;;;;9.20;8.20;;;19.70;96.60;;;;;;5051728;28;20029;-55
2021/07/16 03:17:04;;;;;;;11.15;8.75;;;19.80;96.60;;;;;;5051904;28;20389;-55
2021/07/16 03:19:30;;;;;;;15.80;10.07;;;19.80;96.70;;;;;;5051829;28;20032;-54
2021/07/16 03:21:55;;;;;;;17.63;12.00;;;19.50;97.30;;;;;;5052021;28;20175;-55
2021/07/16 03:24:21;;;;;;;16.38;13.02;;;19.50;97.70;;;;;;5051653;28;20037;-54
2021/07/16 03:26:46;;;;;;;22.63;14.23;;;19.30;98.00;;;;;;5051806;28;20658;-58
2021/07/16 03:29:13;;;;;;;22.83;16.60;;;19.30;98.50;;;;;;5051626;28;20040;-52
2021/07/16 03:31:39;;;;;;;24.30;17.83;;;19.20;98.80;;;;;;5052113;28;20167;-53
2021/07/16 03:34:05;;;;;;;26.10;20.02;;;18.90;99.50;;;;;;5051538;28;20119;-56
2021/07/16 03:36:30;;;;;;;29.20;20.75;;;19.00;99.70;;;;;;5051540;28;20033;-57
2021/07/16 03:38:56;;;;;;;30.58;22.88;;;18.90;99.90;;;;;;5051665;28;20016;-56
2021/07/16 03:41:21;;;;;;;33.17;23.95;;;18.90;99.90;;;;;;5042948;28;20033;-55
2021/07/16 03:43:47;;;;;;;35.60;26.38;;;19.00;99.90;;;;;;5064603;28;20040;-54
2021/07/16 03:46:15;;;;;;;38.78;26.92;;;19.00;99.90;;;;;;5051858;28;20090;-59
2021/07/16 03:48:40;;;;;;;36.30;27.25;;;19.10;99.90;;;;;;5051780;28;20033;-59
2021/07/16 03:51:06;;;;;;;40.97;29.70;;;19.00;99.90;;;;;;5051272;28;20033;-59
2021/07/16 03:53:31;;;;;;;40.28;28.50;;;19.20;99.90;;;;;;5051478;28;20043;-55
2021/07/16 03:55:57;;;;;;;46.78;32.20;;;19.30;99.90;;;;;;5050788;28;20033;-54
2021/07/16 03:58:22;;;;;;;44.28;31.73;;;19.40;99.90;;;;;;5051205;28;20037;-55
2021/07/16 04:00:48;;;;;;;47.50;32.20;;;19.40;99.90;;;;;;5051511;28;20041;-58
2021/07/16 04:03:16;;;;;;;53.03;33.75;;;19.50;99.90;;;;;;5051355;28;20043;-57
2021/07/16 04:05:42;;;;;;;52.78;35.33;;;19.40;99.90;;;;;;5050768;28;20116;-55
2021/07/16 04:08:10;;;;;;;59.05;36.05;;;19.60;99.90;;;;;;5050837;28;20029;-58
2021/07/16 04:10:37;;;;;;;54.85;35.55;;;19.60;99.90;;;;;;5051112;28;20029;-54
2021/07/16 04:13:09;;;;;;;54.47;36.30;;;19.60;99.90;;;;;;5051253;28;20056;-55
2021/07/16 04:15:36;;;;;;;55.03;38.38;;;19.70;99.90;;;;;;5051012;28;20461;-59
2021/07/16 04:18:04;;;;;;;51.72;38.00;;;19.80;99.90;;;;;;5051022;28;20029;-54
2021/07/16 04:20:30;;;;;;;56.17;37.58;;;19.80;99.90;;;;;;5051611;28;20040;-59
2021/07/16 04:22:57;;;;;;;60.33;40.92;;;19.80;99.90;;;;;;5051345;28;20072;-59
2021/07/16 04:25:23;;;;;;;61.83;41.72;;;19.70;99.90;;;;;;5050771;28;20029;-57
2021/07/16 04:27:51;;;;;;;63.83;41.30;;;19.70;99.90;;;;;;5050433;28;20251;-57
2021/07/16 04:30:18;;;;;;;67.38;42.80;;;19.70;99.90;;;;;;5051149;28;20032;-59
2021/07/16 04:32:44;;;;;;;60.00;41.17;;;19.70;99.90;;;;;;5050939;28;20043;-55
2021/07/16 04:35:11;;;;;;;62.67;42.63;;;19.90;99.90;;;;;;5049930;28;20037;-55
2021/07/16 04:37:38;;;;;;;59.17;40.53;;;19.90;99.90;;;;;;5051046;28;20230;-56
2021/07/16 04:40:05;;;;;;;57.47;40.30;;;19.90;99.90;;;;;;5050598;28;20358;-58
2021/07/16 04:42:30;;;;;;;68.25;42.67;;;20.00;99.90;;;;;;5065513;28;20040;-55
2021/07/16 04:44:56;;;;;;;64.28;41.58;;;20.00;99.90;;;;;;5061803;28;20037;-52
2021/07/16 04:47:22;;;;;;;70.00;41.95;;;20.10;99.90;;;;;;5050322;28;20121;-59
2021/07/16 04:49:47;;;;;;;58.90;39.88;;;20.10;99.90;;;;;;5051001;28;20404;-58
2021/07/16 04:52:13;;;;;;;63.22;42.47;;;20.20;99.90;;;;;;5051409;28;20040;-56
2021/07/16 04:54:39;;;;;;;63.13;40.05;;;20.30;99.90;;;;;;5054362;28;20382;-56
2021/07/16 04:57:08;;;;;;;65.00;42.10;;;20.30;99.90;;;;;;5054886;28;20083;-54
2021/07/16 04:59:37;;;;;;;55.28;37.67;;;20.30;99.90;;;;;;5054881;28;20043;-55
2021/07/16 05:02:03;;;;;;;62.70;39.65;;;20.30;99.90;;;;;;5055031;28;20041;-57
2021/07/16 05:04:29;;;;;;;63.58;42.05;;;20.50;99.90;;;;;;5059624;28;20059;-60
2021/07/16 05:06:55;;;;;;;62.65;40.58;;;20.40;99.90;;;;;;5058586;28;20033;-57
2021/07/16 05:09:20;;;;;;;66.38;44.00;;;20.40;99.90;;;;;;5054637;28;20041;-57
2021/07/16 05:11:46;;;;;;;66.22;43.65;;;20.40;99.90;;;;;;5055084;28;20032;-56
2021/07/16 05:14:12;;;;;;;63.55;41.42;;;20.40;99.90;;;;;;5054361;28;20036;-55
2021/07/16 05:16:38;;;;;;;62.55;40.95;;;20.50;99.90;;;;;;5041453;28;20109;-53
2021/07/16 05:19:03;;;;;;;66.78;42.88;;;20.50;99.90;;;;;;5036219;28;20025;-59
2021/07/16 05:21:29;;;;;;;64.60;42.47;;;20.40;99.90;;;;;;5055499;28;20049;-60
2021/07/16 05:23:54;;;;;;;69.55;44.15;;;20.40;99.90;;;;;;5056280;28;20399;-59
2021/07/16 05:26:20;;;;;;;62.63;43.10;;;20.60;99.90;;;;;;5053874;28;20040;-59
2021/07/16 05:28:49;;;;;;;70.05;46.45;;;20.50;99.90;;;;;;5051778;28;20041;-58
2021/07/16 05:31:15;;;;;;;64.97;44.35;;;20.60;99.90;;;;;;5033883;28;20025;-58
2021/07/16 05:33:41;;;;;;;67.75;45.95;;;20.50;99.90;;;;;;5036690;28;20041;-57
2021/07/16 05:36:08;;;;;;;73.55;47.00;;;20.50;99.90;;;;;;5053845;28;20369;-59
2021/07/16 05:38:34;;;;;;;67.88;45.70;;;20.50;99.90;;;;;;5054495;28;20131;-57
2021/07/16 05:41:00;;;;;;;71.85;45.60;;;20.60;99.90;;;;;;5049415;28;20539;-56
2021/07/16 05:43:26;;;;;;;71.55;46.35;;;20.60;99.90;;;;;;5036344;28;20050;-56
2021/07/16 05:45:51;;;;;;;72.18;48.70;;;20.60;99.90;;;;;;5033480;28;20621;-57
2021/07/16 05:48:17;;;;;;;77.53;49.15;;;20.60;99.90;;;;;;5045348;28;20037;-59
2021/07/16 05:50:44;;;;;;;74.07;47.58;;;20.50;99.90;;;;;;5063770;28;20037;-57
2021/07/16 05:53:10;;;;;;;72.57;47.15;;;20.50;99.90;;;;;;5050072;28;20038;-53
2021/07/16 05:55:36;;;;;;;71.57;49.45;;;20.50;99.90;;;;;;5032886;28;20083;-55
2021/07/16 05:58:02;;;;;;;77.40;48.33;;;20.50;99.90;;;;;;5032592;28;20040;-54
2021/07/16 06:00:28;;;;;;;76.72;48.97;;;20.50;99.90;;;;;;5033381;28;20080;-56
2021/07/16 06:02:55;;;;;;;76.00;48.88;;;20.50;99.90;;;;;;5032514;28;20041;-57
2021/07/16 06:05:21;;;;;;;74.97;46.33;;;20.40;99.90;;;;;;5031890;28;20493;-57
2021/07/16 06:07:46;;;;;;;70.03;46.55;;;20.40;99.90;;;;;;5033241;28;20033;-58
2021/07/16 06:10:13;;;;;;;67.78;47.45;;;20.40;99.90;;;;;;5033816;28;20064;-55
2021/07/16 06:12:39;;;;;;;67.80;45.47;;;20.50;99.90;;;;;;5032823;28;20034;-55
2021/07/16 06:15:06;;;;;;;72.35;49.10;;;20.60;99.90;;;;;;5032736;28;20036;-57
2021/07/16 06:17:32;;;;;;;66.07;44.47;;;20.40;99.90;;;;;;5032167;28;20657;-57
2021/07/16 06:19:58;;;;;;;67.60;44.15;;;20.40;99.90;;;;;;5036117;28;20033;-57
2021/07/16 06:22:25;;;;;;;66.65;47.30;;;20.50;99.90;;;;;;5035224;28;20067;-58
2021/07/16 06:24:50;;;;;;;64.57;45.13;;;20.60;99.90;;;;;;5038417;28;20393;-59
2021/07/16 06:27:16;;;;;;;67.90;46.35;;;20.60;99.90;;;;;;5042540;28;20038;-57
2021/07/16 06:29:42;;;;;;;66.07;44.33;;;20.50;99.90;;;;;;5044529;28;20045;-59
2021/07/16 06:32:07;;;;;;;61.35;42.72;;;20.60;99.90;;;;;;5054293;28;20047;-53
2021/07/16 06:34:34;;;;;;;64.18;43.58;;;20.50;99.90;;;;;;5053289;28;20041;-53
2021/07/16 06:36:59;;;;;;;62.03;42.40;;;20.60;99.90;;;;;;5053590;28;20035;-54
2021/07/16 06:39:26;;;;;;;61.08;41.42;;;20.60;99.90;;;;;;5053181;28;20025;-56
2021/07/16 06:41:51;;;;;;;62.55;44.30;;;20.70;99.90;;;;;;5050233;28;20149;-54
2021/07/16 06:44:17;;;;;;;61.33;45.00;;;20.70;99.90;;;;;;5064828;28;20082;-55
2021/07/16 06:46:43;;;;;;;63.28;42.33;;;20.50;99.90;;;;;;5052039;28;20041;-60
2021/07/16 06:49:10;;;;;;;61.60;43.08;;;20.60;99.90;;;;;;5053716;28;20076;-59
2021/07/16 06:51:35;;;;;;;69.18;44.47;;;20.60;99.90;;;;;;5054550;28;20037;-57
2021/07/16 06:54:05;;;;;;;62.42;41.75;;;20.50;99.90;;;;;;5054001;28;20037;-61
2021/07/16 06:56:31;;;;;;;64.40;44.42;;;20.60;99.90;;;;;;5051854;28;20163;-55
2021/07/16 06:59:00;;;;;;;70.22;44.97;;;20.60;99.90;;;;;;5053557;28;20052;-57
2021/07/16 07:01:25;;;;;;;69.43;45.50;;;20.60;99.90;;;;;;5053303;28;20485;-56
2021/07/16 07:03:51;;;;;;;70.15;45.83;;;20.60;99.90;;;;;;5052185;28;20033;-53
2021/07/16 07:06:17;;;;;;;71.28;48.72;;;20.50;99.90;;;;;;5053151;28;20060;-58
2021/07/16 07:08:43;;;;;;;75.28;49.55;;;20.60;99.90;;;;;;5053220;28;20447;-55
2021/07/16 07:11:09;;;;;;;72.60;48.03;;;20.60;99.90;;;;;;5051821;28;20029;-56
2021/07/16 07:13:35;;;;;;;69.10;47.50;;;20.50;99.90;;;;;;5052872;28;20071;-56
2021/07/16 07:16:02;;;;;;;72.07;46.88;;;20.50;99.90;;;;;;5051394;28;20120;-56
2021/07/16 07:18:27;;;;;;;73.90;46.22;;;20.60;99.90;;;;;;5053628;28;20040;-52
2021/07/16 07:20:54;;;;;;;63.22;46.28;;;20.60;99.90;;;;;;5053301;28;20074;-60
2021/07/16 07:23:20;;;;;;;57.55;42.20;;;20.60;99.90;;;;;;5053119;28;20025;-59
2021/07/16 07:25:46;;;;;;;68.07;43.53;;;20.50;99.80;;;;;;5051914;28;20507;-59
2021/07/16 07:28:11;;;;;;;59.40;42.35;;;20.50;99.90;;;;;;5052401;28;20029;-59
2021/07/16 07:30:37;;;;;;;62.60;42.38;;;20.50;99.80;;;;;;5052202;28;20060;-55
2021/07/16 07:33:04;;;;;;;59.72;41.00;;;20.50;99.80;;;;;;5052603;28;20555;-57
2021/07/16 07:35:32;;;;;;;60.65;42.08;;;20.50;99.80;;;;;;5052178;28;20056;-58
2021/07/16 07:37:57;;;;;;;61.25;42.13;;;20.50;99.60;;;;;;5052854;28;20033;-55
2021/07/16 07:40:23;;;;;;;68.22;45.22;;;20.60;99.60;;;;;;5055016;28;20032;-56
2021/07/16 07:42:49;;;;;;;63.05;45.42;;;20.40;99.80;;;;;;5066975;28;20032;-55
2021/07/16 07:45:15;;;;;;;63.80;44.70;;;20.50;99.80;;;;;;5062984;28;20039;-59
2021/07/16 07:47:41;;;;;;;68.15;44.95;;;20.50;99.90;;;;;;5055445;28;20544;-55
2021/07/16 07:50:12;;;;;;;62.22;44.92;;;20.40;99.90;;;;;;5052051;28;20523;-56
2021/07/16 07:52:37;;;;;;;72.88;48.22;;;20.40;99.90;;;;;;5052654;28;20433;-56
2021/07/16 07:55:03;;;;;;;67.75;45.15;;;20.50;99.50;;;;;;5051542;28;20031;-56
2021/07/16 07:57:29;;;;;;;62.00;41.72;;;20.70;99.50;;;;;;5052219;28;20060;-58
2021/07/16 07:59:55;;;;;;;55.33;40.47;;;20.70;99.20;;;;;;5052956;28;20059;-59
2021/07/16 08:02:20;;;;;;;51.72;39.83;;;20.70;99.00;;;;;;5052420;28;20056;-61
2021/07/16 08:04:46;;;;;;;54.40;39.70;;;20.40;99.60;;;;;;5032055;28;20083;-58
2021/07/16 08:07:11;;;;;;;52.90;38.35;;;20.50;99.60;;;;;;5046884;28;20057;-55
2021/07/16 08:09:38;;;;;;;54.08;38.25;;;20.60;99.40;;;;;;5038616;28;20068;-58
2021/07/16 08:12:05;;;;;;;47.75;36.47;;;20.70;99.20;;;;;;5051695;28;20050;-57
2021/07/16 08:14:31;;;;;;;48.90;36.08;;;20.80;99.20;;;;;;5051829;28;20025;-56
2021/07/16 08:16:56;;;;;;;49.35;36.90;;;20.70;99.10;;;;;;5038535;28;20576;-59
2021/07/16 08:19:22;;;;;;;56.38;41.72;;;20.80;99.10;;;;;;5052216;28;20072;-57
2021/07/16 08:21:51;;;;;;;58.70;40.63;;;20.70;99.10;;;;;;5052046;28;20061;-57
2021/07/16 08:24:17;;;;;;;58.22;41.45;;;20.70;99.10;;;;;;5052126;28;20086;-60
2021/07/16 08:26:43;;;;;;;53.42;39.08;;;20.60;99.30;;;;;;5052101;28;20116;-59
2021/07/16 08:29:09;;;;;;;48.30;37.20;;;20.50;99.50;;;;;;5051752;28;20125;-59
2021/07/16 08:31:36;;;;;;;46.25;34.88;;;20.70;99.50;;;;;;5052055;28;20477;-62
2021/07/16 08:34:03;;;;;;;47.05;36.28;;;20.80;99.00;;;;;;5038643;28;20082;-59
2021/07/16 08:36:28;;;;;;;47.33;35.22;;;20.80;98.80;;;;;;5049988;28;20063;-57
2021/07/16 08:38:54;;;;;;;52.83;36.92;;;20.80;98.90;;;;;;5051485;28;20025;-59
2021/07/16 08:41:20;;;;;;;48.42;35.05;;;20.60;99.10;;;;;;5053348;28;20032;-58
2021/07/16 08:43:48;;;;;;;44.50;33.30;;;20.60;99.20;;;;;;5068996;28;20086;-56
2021/07/16 08:46:13;;;;;;;47.88;35.25;;;20.60;99.30;;;;;;5051386;28;20396;-60
2021/07/16 08:48:40;;;;;;;43.03;32.45;;;20.60;99.40;;;;;;5052637;28;20143;-56
2021/07/16 08:51:08;;;;;;;45.38;33.55;;;20.60;99.30;;;;;;5051852;28;20032;-58
2021/07/16 08:53:33;;;;;;;49.05;35.47;;;20.50;99.30;;;;;;5051735;28;20133;-60
2021/07/16 08:55:59;;;;;;;46.25;34.72;;;20.60;99.30;;;;;;5052235;28;20124;-60
2021/07/16 08:58:28;;;;;;;42.45;33.05;;;20.60;99.20;;;;;;5054406;28;20033;-57
2021/07/16 09:00:53;;;;;;;43.92;33.28;;;20.70;99.20;;;;;;5054057;28;20041;-59
2021/07/16 09:03:19;;;;;;;42.75;31.30;;;20.70;99.10;;;;;;5050729;28;20029;-56
2021/07/16 09:05:45;;;;;;;46.13;32.67;;;20.90;99.10;;;;;;5051829;28;20051;-60
2021/07/16 09:08:29;;;;;;;45.60;32.90;;;21.10;98.80;;;;;;5051723;28;20031;-58
2021/07/16 09:10:58;;;;;;;42.70;31.88;;;21.10;98.60;;;;;;5051947;28;20021;-55
2021/07/16 09:13:26;;;;;;;41.33;31.85;;;21.00;98.80;;;;;;5054884;28;20029;-62
2021/07/16 09:16:00;;;;;;;37.08;28.63;;;21.00;98.40;;;;;;5054272;28;20028;-57
2021/07/16 09:18:32;;;;;;;38.97;29.95;;;20.80;98.90;;;;;;5051535;28;20075;-55
2021/07/16 09:21:01;;;;;;;35.85;28.05;;;20.90;98.90;;;;;;5051178;28;20033;-55
2021/07/16 09:23:36;;;;;;;32.33;27.33;;;21.10;98.20;;;;;;5052001;28;20029;-54
2021/07/16 09:26:08;;;;;;;41.10;26.88;;;21.30;98.20;;;;;;5051238;28;20087;-55
2021/07/16 09:28:36;;;;;;;35.13;27.25;;;21.20;98.10;;;;;;5049234;28;20390;-58
2021/07/16 09:31:28;;;;;;;32.97;26.75;;;21.20;98.10;;;;;;5051467;28;20083;-55
2021/07/16 09:33:57;;;;;;;29.85;24.83;;;21.30;97.90;;;;;;5048710;28;20079;-56
2021/07/16 09:36:28;;;;;;;35.65;27.23;;;21.50;97.70;;;;;;5051384;28;20040;-60
2021/07/16 09:38:57;;;;;;;27.20;24.25;;;21.30;98.00;;;;;;5051546;28;20053;-55
2021/07/16 09:41:23;;;;;;;29.60;24.63;;;21.20;97.90;;;;;;5065277;28;20029;-60
2021/07/16 09:43:51;;;;;;;31.98;25.60;;;21.40;97.80;;;;;;5070103;28;20508;-57
2021/07/16 09:46:17;;;;;;;33.53;27.02;;;21.50;97.40;;;;;;5041296;28;20040;-58
2021/07/16 09:48:43;;;;;;;38.60;27.10;;;21.40;97.50;;;;;;5055618;28;20029;-57
2021/07/16 09:51:25;;;;;;;38.70;28.17;;;21.40;97.70;;;;;;5055556;28;20057;-58
2021/07/16 09:53:59;;;;;;;32.38;27.70;;;21.30;97.80;;;;;;5054388;28;20033;-60
2021/07/16 09:56:27;;;;;;;34.15;28.45;;;21.40;97.70;;;;;;5054101;28;20488;-56
2021/07/16 09:59:03;;;;;;;34.22;28.55;;;21.30;97.60;;;;;;5054627;28;20069;-55
2021/07/16 10:01:31;;;;;;;34.08;28.92;;;21.20;97.70;;;;;;5054767;28;20053;-57
2021/07/16 10:04:06;;;;;;;36.25;28.55;;;21.30;97.50;;;;;;5054887;28;20772;-57
2021/07/16 10:06:32;;;;;;;33.42;27.60;;;21.40;97.60;;;;;;5054763;28;20061;-59
2021/07/16 10:08:58;;;;;;;32.17;25.80;;;21.40;97.50;;;;;;5054515;28;20029;-58
2021/07/16 10:11:27;;;;;;;31.63;26.10;;;21.40;97.40;;;;;;5054474;28;20388;-58
2021/07/16 10:13:55;;;;;;;29.50;23.88;;;21.50;97.20;;;;;;5054027;28;20033;-56
2021/07/16 10:16:21;;;;;;;29.08;24.05;;;21.40;97.10;;;;;;5052524;28;20106;-55
2021/07/16 10:18:47;;;;;;;30.90;26.10;;;21.30;97.20;;;;;;5054145;28;20420;-60
2021/07/16 10:21:13;;;;;;;29.20;23.52;;;21.30;97.10;;;;;;5047539;28;20033;-59
2021/07/16 10:23:39;;;;;;;26.60;23.20;;;21.20;97.80;;;;;;5054105;28;20020;-58
2021/07/16 10:26:09;;;;;;;29.25;23.10;;;21.20;97.80;;;;;;5042895;28;20520;-58
2021/07/16 10:28:41;;;;;;;28.40;21.90;;;21.10;98.00;;;;;;5054332;28;20033;-58
2021/07/16 10:31:28;;;;;;;29.23;23.77;;;21.20;97.80;;;;;;5049655;28;20048;-60
2021/07/16 10:34:17;;;;;;;25.67;22.40;;;21.00;97.90;;;;;;5051557;28;20033;-57
2021/07/16 10:36:44;;;;;;;24.40;20.77;;;20.90;98.40;;;;;;5044720;28;20041;-60
2021/07/16 10:39:13;;;;;;;26.77;22.38;;;21.00;98.30;;;;;;5053556;28;20493;-60
2021/07/16 10:41:40;;;;;;;25.98;21.05;;;21.10;98.00;;;;;;5041418;28;20033;-56
2021/07/16 10:44:07;;;;;;;23.50;21.10;;;21.10;98.10;;;;;;5040449;28;20059;-60
2021/07/16 10:46:34;;;;;;;23.35;20.92;;;21.20;97.70;;;;;;5047634;28;20048;-57
2021/07/16 10:49:02;;;;;;;25.83;21.35;;;21.10;97.80;;;;;;5037352;28;20037;-58
2021/07/16 10:51:31;;;;;;;25.65;20.25;;;20.90;98.40;;;;;;5052848;28;20075;-57
2021/07/16 10:53:58;;;;;;;22.70;20.30;;;21.20;97.80;;;;;;5053388;28;20041;-58
2021/07/16 10:56:50;;;;;;;21.15;19.05;;;21.30;97.60;;;;;;5052249;28;20494;-54
2021/07/16 10:59:48;;;;;;;22.20;19.90;;;21.30;97.70;;;;;;5048852;28;20037;-54
2021/07/16 11:02:38;;;;;;;22.88;19.45;;;21.40;97.40;;;;;;5052897;28;20108;-57
2021/07/16 11:05:36;;;;;;;25.30;21.17;;;21.60;96.90;;;;;;5051833;28;20068;-62
2021/07/16 11:08:06;;;;;;;23.63;21.23;;;21.60;96.80;;;;;;5008371;28;20227;-56
2021/07/16 11:10:47;;;;;;;23.40;20.65;;;21.80;96.30;;;;;;5054401;28;20032;-57
2021/07/16 11:13:44;;;;;;;22.90;20.50;;;21.80;96.40;;;;;;5051088;28;20056;-60
2021/07/16 11:16:16;;;;;;;21.75;19.58;;;22.00;95.90;;;;;;5052745;28;20047;-59
2021/07/16 11:18:58;;;;;;;24.48;21.88;;;22.10;95.70;;;;;;5052772;28;20067;-57
2021/07/16 11:21:46;;;;;;;23.65;21.25;;;22.20;95.70;;;;;;5052398;28;20033;-58
2021/07/16 11:26:55;;;;;;;24.10;19.60;;;22.60;94.90;;;;;;5052320;28;20454;-59
2021/07/16 11:29:34;;;;;;;20.73;18.58;;;23.00;94.60;;;;;;5051329;28;20095;-57
2021/07/16 11:32:05;;;;;;;19.77;17.73;;;23.10;94.30;;;;;;5052419;28;20021;-58
2021/07/16 11:34:32;;;;;;;19.20;17.25;;;23.40;93.70;;;;;;5052794;28;20056;-60
2021/07/16 11:36:57;;;;;;;18.60;16.63;;;23.70;93.30;;;;;;5051513;28;20082;-58
2021/07/16 11:39:31;;;;;;;19.02;16.98;;;23.70;92.90;;;;;;5053100;28;20033;-55
2021/07/16 11:41:58;;;;;;;18.55;16.75;;;23.50;93.30;;;;;;5064815;28;20029;-56
2021/07/16 11:44:38;;;;;;;19.70;16.90;;;23.60;93.40;;;;;;5065496;28;20024;-58
2021/07/16 11:47:21;;;;;;;23.67;18.20;;;23.70;93.10;;;;;;5052652;28;20048;-58
2021/07/16 11:49:48;;;;;;;21.50;18.98;;;23.70;93.10;;;;;;5052774;28;20047;-57
2021/07/16 11:52:23;;;;;;;19.80;17.80;;;23.60;93.10;;;;;;5052612;28;20041;-56
2021/07/16 11:54:54;;;;;;;19.95;18.08;;;23.70;92.90;;;;;;5051295;28;20032;-58
2021/07/16 11:57:22;;;;;;;18.42;16.58;;;23.80;92.90;;;;;;5052922;28;20037;-57
2021/07/16 11:59:52;;;;;;;21.48;19.00;;;23.90;93.00;;;;;;5052199;28;20021;-55
2021/07/16 12:02:19;;;;;;;19.23;17.25;;;23.70;92.80;;;;;;5051758;28;20033;-60
2021/07/16 12:04:47;;;;;;;19.15;17.33;;;23.60;93.00;;;;;;5051920;28;20033;-60
2021/07/16 12:07:15;;;;;;;20.95;18.80;;;23.70;93.10;;;;;;5050805;28;20037;-60
2021/07/16 12:09:44;;;;;;;24.45;19.90;;;23.80;92.80;;;;;;5051934;28;20557;-57
2021/07/16 12:12:14;;;;;;;22.85;20.45;;;23.70;93.10;;;;;;5051729;28;20037;-58
2021/07/16 12:14:52;;;;;;;21.58;19.23;;;24.00;93.00;;;;;;5049535;28;20492;-58
2021/07/16 12:17:24;;;;;;;22.02;18.67;;;24.30;92.70;;;;;;5052173;28;20039;-56
2021/07/16 12:19:50;;;;;;;22.63;20.42;;;24.30;92.00;;;;;;5051379;28;20082;-58
2021/07/16 12:22:19;;;;;;;22.25;18.05;;;24.30;92.00;;;;;;5055143;28;20036;-58
2021/07/16 12:24:45;;;;;;;23.02;20.42;;;24.30;92.10;;;;;;5055911;28;20037;-59
2021/07/16 12:27:13;;;;;;;23.52;19.92;;;24.30;92.20;;;;;;5052376;28;20029;-59
2021/07/16 12:29:39;;;;;;;23.00;20.25;;;24.40;92.20;;;;;;5052035;28;20036;-58
2021/07/16 12:32:06;;;;;;;20.63;18.48;;;24.40;92.30;;;;;;5051752;28;20477;-58
2021/07/16 12:34:31;;;;;;;22.23;19.00;;;24.50;91.90;;;;;;5051372;28;20033;-59
2021/07/16 12:37:13;;;;;;;23.35;20.70;;;24.70;91.80;;;;;;5051542;28;20029;-58